Champion — WCZ7631 — position and weather

sailwx.info

Track history (hours):
 
Tides and Currents Weather Stations Pressure Air Temp Water Temp Dewpoint Dewpoint Depression Visibility Wind Speed Wind Dir Waves Ship Positions

Champion

Owner: MC CULLEY MARINE SERVICES INC, FORT PIERCE, FL. More information available from US FCC via Universal Licensing System and Coast Guard Vessel Documentation Center.

Last reported at 2015-Feb-03 09:31 UTC. Time now 2015-Mar-05 20:19 UTC.
Position N 26°02' W 079°24'.
Warning: this ship's position is 30 days out of date.

Length 20 m; draft 1.7 m.

Type: Towing. MMSI: 367005250.

Date/timePositionNaut miles runAvg speedWind from/ knotsBaromVisibWave heightAir tempDewpointWater temp
2015-Feb-03 09:31N 26°02' W 079°24'4 4.0
2015-Feb-03 08:33N 26°01' W 079°28'4 4.3
2015-Feb-03 07:33N 25°59' W 079°33'5 4.8
2015-Feb-03 06:33N 25°56' W 079°37'5 5.0
2015-Feb-03 05:33N 25°53' W 079°41'17 5.5
2015-Feb-03 02:32N 25°42' W 079°56'5 4.5
2015-Feb-03 01:20N 25°41' W 080°01'3 4.2
2015-Feb-03 00:31N 25°40' W 080°05'  
2015-Jan-31 13:05N 26°07' W 081°53'3 4.6
2015-Jan-31 12:31N 26°10' W 081°54'5 4.4
2015-Jan-31 11:27N 26°14' W 081°57'4 4.2
2015-Jan-31 10:33N 26°17' W 081°59'4 4.0
2015-Jan-31 09:33N 26°19' W 082°03'4 3.9
2015-Jan-31 08:33N 26°22' W 082°06'4 4.0
2015-Jan-31 07:33N 26°25' W 082°10'4 3.9
2015-Jan-31 06:33N 26°28' W 082°12'4 4.3
2015-Jan-31 05:33N 26°31' W 082°15'5 4.5
2015-Jan-31 04:33N 26°35' W 082°17'5 4.8
2015-Jan-31 03:27N 26°40' W 082°19'  
2015-Jan-27 07:30N 30°19' W 086°13'4 3.7
2015-Jan-27 06:32N 30°20' W 086°17'4 3.6
2015-Jan-27 05:31N 30°20' W 086°21'4 3.7
2015-Jan-27 04:33N 30°21' W 086°25'4 3.9
2015-Jan-27 03:33N 30°21' W 086°29'4 3.8
2015-Jan-27 02:30N 30°22' W 086°34'4 3.8
2015-Jan-27 01:28N 30°22' W 086°39'4 3.8
2015-Jan-27 00:33N 30°22' W 086°43'4 3.9
2015-Jan-26 23:33N 30°22' W 086°47'4 3.9
2015-Jan-26 22:33N 30°21' W 086°52'4 3.8
2015-Jan-26 21:26N 30°21' W 086°57'  
Track history (hours):
 
Tides and Currents Weather Stations Pressure Air Temp Water Temp Dewpoint Dewpoint Depression Visibility Wind Speed Wind Dir Waves Ship Positions

Champion

Owner: MC CULLEY MARINE SERVICES INC, FORT PIERCE, FL. More information available from US FCC via Universal Licensing System and Coast Guard Vessel Documentation Center.

Last reported at 2015-Feb-03 09:31 UTC. Time now 2015-Mar-05 20:19 UTC.
Position N 26°02' W 079°24'.
Warning: this ship's position is 30 days out of date.

Length 20 m; draft 1.7 m.

Type: Towing. MMSI: 367005250.

Date/timePositionNaut miles runAvg speedWind from/ knotsBaromVisibWave heightAir tempDewpointWater temp
2015-Feb-03 09:31N 26°02' W 079°24'4 4.0
2015-Feb-03 08:33N 26°01' W 079°28'4 4.3
2015-Feb-03 07:33N 25°59' W 079°33'5 4.8
2015-Feb-03 06:33N 25°56' W 079°37'5 5.0
2015-Feb-03 05:33N 25°53' W 079°41'17 5.5
2015-Feb-03 02:32N 25°42' W 079°56'5 4.5
2015-Feb-03 01:20N 25°41' W 080°01'3 4.2
2015-Feb-03 00:31N 25°40' W 080°05'  
2015-Jan-31 13:05N 26°07' W 081°53'3 4.6
2015-Jan-31 12:31N 26°10' W 081°54'5 4.4
2015-Jan-31 11:27N 26°14' W 081°57'4 4.2
2015-Jan-31 10:33N 26°17' W 081°59'4 4.0
2015-Jan-31 09:33N 26°19' W 082°03'4 3.9
2015-Jan-31 08:33N 26°22' W 082°06'4 4.0
2015-Jan-31 07:33N 26°25' W 082°10'4 3.9
2015-Jan-31 06:33N 26°28' W 082°12'4 4.3
2015-Jan-31 05:33N 26°31' W 082°15'5 4.5
2015-Jan-31 04:33N 26°35' W 082°17'5 4.8
2015-Jan-31 03:27N 26°40' W 082°19'  
2015-Jan-27 07:30N 30°19' W 086°13'4 3.7
2015-Jan-27 06:32N 30°20' W 086°17'4 3.6
2015-Jan-27 05:31N 30°20' W 086°21'4 3.7
2015-Jan-27 04:33N 30°21' W 086°25'4 3.9
2015-Jan-27 03:33N 30°21' W 086°29'4 3.8
2015-Jan-27 02:30N 30°22' W 086°34'4 3.8
2015-Jan-27 01:28N 30°22' W 086°39'4 3.8
2015-Jan-27 00:33N 30°22' W 086°43'4 3.9
2015-Jan-26 23:33N 30°22' W 086°47'4 3.9
2015-Jan-26 22:33N 30°21' W 086°52'4 3.8
2015-Jan-26 21:26N 30°21' W 086°57'  

Dump ship's entire track history